map of ASW home
ASW - Airport
Location
City:  Aswan, Aswan, Egypt
Name:Aswan International Airport
ICAO:HESN
IATA:ASW

Details
Type:Airport (Aerodrome, Airfield)
Use:Public/Civil, International (customs port of entry)
Latitude:2357'52"N (23.964356)
Longitude:3249'12"E (32.819975)
Datum:WGS 1984
Elevation:662 ft (202 m)
Variation:4.04E (WMM2015 magnetic declination)
0.08 annual change
Runways:1
Longest:11161 × 148 ft (3402 × 45 m), paved

Time
Time Zone:UTC+2
Local Time:

Weather
METAR:HESN 112000Z 36005KT CAVOK 16/04 Q1021 NOSIG
TAF:HESN 111700Z 1118/1224 36010KT CAVOK

Related Locations
Nearby:
Farthest:RVV: 12417 mi / 19983 km
Raivavae, Tubuai Islands, Austral Islands, PF

Find:

   beyond  
but within

Other Information
Maps:
NOTAMs:
Links:
Sources:

  
  • flag of Egypt
  • flag of Aswan
  

Sectional Chart

Flight Planning
at skyvector.com

Satellite Image

Google Maps Satellite view

 

Copyright © 2004-2018 Karl L. Swartz. All rights reserved.
The Great Circle Mapper name and logo are trademarks of the Great Circle Mapper.
All other trademarks mentioned herein belong to their respective owners.
Please see credits for attibutions and further copyright information.

  Follow gcmap on Facebook Follow gcmap on Twitter Follow gcmap on Google+ GCmap on LinkedIn

hCard Microformat

Geo Microformat